Lakewood Harbor, Texas
Current Conditions -  °F | °C
As of 6:51 PM on Thursday 18 Dec 2014 (Local Time) from KACT Reporting Station
Overcast Overcast  
Wind Chill: 45°   Ceiling: 800
Heat Index: 49°   Visibility: 7mi
Dew Point: 46°   Wind: 10mph
Humidity: 90%   Direction: 40°NE
Pressure: 30.13"   Gusts: NA
Location:  31.7854°N, 97.5786°W
Report Text: KACT 190051Z 04009KT 7SM OVC008 09/08 A3013 RMK AO2 CIG 007V011 SLP203 T00940078
Loading
Personal Weather Stations






























Interactive Weather Map New forecast layout! Learn more

10-Day Weather Forecast

Advertisements
Track Severe Weather on mobile